Paradise, CA

2:48 PM PDT on October 23, 2014 (GMT -0700)
Bennett | Change Station
CLOSE
Current Station
Personal Weather Station
Location: Paradise, CA
Elevation: 1568 ft
Nearby Weather Stations

Elev 1568 ft 39.74 °N, 121.60 °W | Updated 3 seconds ago

Overcast
Overcast
63.0 °F
Feels Like 63.0 °F
N
0.0
Wind Variable Wind from North
Gusts 0.0 mph

Today
High -- | Low -- °F
--% Chance of Precip.
Yesterday
High -- | Low -- °F
Precip. -- in
7:25 AM 6:15 PM
Waning Crescent, 0% visible
Pressure 30.06 in
Visibility 10.0 miles
Clouds Scattered Clouds 10000 ft
Overcast 20000 ft
Dew Point 54 °F
Humidity 71%
Rainfall 0.00 in
Snow Depth Not available.
UV 1 out of 12
Pollen .50 out of 12
Air Quality Not available.
Flu Activity Sporadic
METAR KCIC 232056Z VRB05KT 10SM SCT100 OVC200 17/13 A3006

More Conditions Fewer Conditions

Pressure 30.06 in
Visibility 10.0 miles
Clouds Scattered Clouds 10000 ft
Overcast 20000 ft
Dew Point 54 °F
Humidity 71%
Rainfall 0.00 in
Snow Depth Not available.
UV 1 out of 12
Pollen .50 out of 12
Air Quality Not available.
Flu Activity Sporadic
METAR KCIC 232056Z VRB05KT 10SM SCT100 OVC200 17/13 A3006

More Conditions Fewer Conditions

10-Day Weather Forecast

Almanac

Astronomy

Oct. 23, 2014 Rise Set
Actual Time 7:25 AM PDT 6:15 PM PDT
Civil Twilight 6:57 AM PDT 6:43 PM PDT
Nautical Twilight 6:26 AM PDT 7:14 PM PDT
Astronomical Twilight 5:54 AM PDT 7:45 PM PDT
Moon 7:10 AM PDT 6:20 PM PDT
Length of Visible Light 11h 45m
Length of Day
10h 50m
Tomorrow will be 2m 25s shorter.
Waning Crescent, 0% of the Moon is Illuminated
Today
Waning Crescent
Oct 23
New
Oct 30
First Quarter
Nov 6
Full
Nov 14
Last Quarter

Today's Extremes

State Highs State Lows

Community

WunderPhotos

Upload Photos

1,764,381 photos uploaded!

WunderBlogs® & News

Nearby

Snow Depth

Station Depth Elevation
Tahoe City Cross 0 in 6750 ft
Rubicon #2 0 in 7500 ft
Echo Peak 0 in 7800 ft
Hagan's Meadow 0 in 8000 ft
Adin Mountain 0 in 6200 ft

Earthquake Activity

City Distance Mag. Time & Date
Gerlach-Empire, Nevada 106 miles 2.5 7:16 AM PDT
2014-10-23
Minimum magnitude displayed is 2.5.

Coastal Water Temperatures

Place Temperature
No Stations Reporting

Nearby Weather Stations